sensor_id;sensor_type;location;lat;lon;timestamp;pressure;altitude;pressure_sealevel;temperature;humidity
75886;BME280;64561;44.018;10.144;2024-02-14T00:00:50;102238.75;;;7.35;100.00
75886;BME280;64561;44.018;10.144;2024-02-14T00:03:17;102243.28;;;7.25;100.00
75886;BME280;64561;44.018;10.144;2024-02-14T00:05:45;102246.66;;;7.11;100.00
75886;BME280;64561;44.018;10.144;2024-02-14T00:08:12;102241.88;;;7.02;100.00
75886;BME280;64561;44.018;10.144;2024-02-14T00:10:41;102241.56;;;7.11;100.00
75886;BME280;64561;44.018;10.144;2024-02-14T00:13:11;102242.81;;;7.18;100.00
75886;BME280;64561;44.018;10.144;2024-02-14T00:15:40;102240.44;;;7.21;100.00
75886;BME280;64561;44.018;10.144;2024-02-14T00:18:07;102250.91;;;7.25;100.00
75886;BME280;64561;44.018;10.144;2024-02-14T00:20:34;102246.91;;;7.16;100.00
75886;BME280;64561;44.018;10.144;2024-02-14T00:23:03;102242.50;;;6.98;100.00
75886;BME280;64561;44.018;10.144;2024-02-14T00:25:30;102243.16;;;6.96;100.00
75886;BME280;64561;44.018;10.144;2024-02-14T00:27:59;102244.84;;;6.95;100.00
75886;BME280;64561;44.018;10.144;2024-02-14T00:30:28;102250.50;;;6.91;100.00
75886;BME280;64561;44.018;10.144;2024-02-14T00:33:22;102246.91;;;6.87;100.00
75886;BME280;64561;44.018;10.144;2024-02-14T00:35:50;102242.41;;;6.83;100.00
75886;BME280;64561;44.018;10.144;2024-02-14T00:38:17;102253.47;;;6.84;100.00
75886;BME280;64561;44.018;10.144;2024-02-14T00:40:44;102260.31;;;6.85;100.00
75886;BME280;64561;44.018;10.144;2024-02-14T00:43:12;102264.72;;;6.87;100.00
75886;BME280;64561;44.018;10.144;2024-02-14T00:45:39;102273.13;;;6.86;100.00
75886;BME280;64561;44.018;10.144;2024-02-14T00:48:07;102269.31;;;6.93;100.00
75886;BME280;64561;44.018;10.144;2024-02-14T00:50:35;102267.03;;;6.98;100.00
75886;BME280;64561;44.018;10.144;2024-02-14T00:53:05;102262.03;;;6.99;100.00
75886;BME280;64561;44.018;10.144;2024-02-14T00:55:32;102268.19;;;7.03;100.00
75886;BME280;64561;44.018;10.144;2024-02-14T00:57:59;102271.03;;;7.07;100.00
75886;BME280;64561;44.018;10.144;2024-02-14T01:00:27;102274.47;;;7.08;100.00
75886;BME280;64561;44.018;10.144;2024-02-14T01:02:54;102271.13;;;7.09;100.00
75886;BME280;64561;44.018;10.144;2024-02-14T01:05:23;102279.81;;;7.13;100.00
75886;BME280;64561;44.018;10.144;2024-02-14T01:07:51;102270.75;;;7.03;100.00
75886;BME280;64561;44.018;10.144;2024-02-14T01:10:21;102287.97;;;6.94;100.00
75886;BME280;64561;44.018;10.144;2024-02-14T01:12:48;102296.13;;;6.88;100.00
75886;BME280;64561;44.018;10.144;2024-02-14T01:15:16;102296.03;;;6.86;100.00
75886;BME280;64561;44.018;10.144;2024-02-14T01:17:44;102299.84;;;6.93;100.00
75886;BME280;64561;44.018;10.144;2024-02-14T01:20:15;102305.31;;;6.99;100.00
75886;BME280;64561;44.018;10.144;2024-02-14T01:22:42;102305.72;;;6.92;100.00
75886;BME280;64561;44.018;10.144;2024-02-14T01:25:22;102320.59;;;6.86;100.00
75886;BME280;64561;44.018;10.144;2024-02-14T01:27:49;102320.50;;;6.84;100.00
75886;BME280;64561;44.018;10.144;2024-02-14T01:30:19;102314.22;;;6.79;100.00
75886;BME280;64561;44.018;10.144;2024-02-14T01:32:47;102320.50;;;6.84;100.00
75886;BME280;64561;44.018;10.144;2024-02-14T01:35:14;102316.38;;;6.86;100.00
75886;BME280;64561;44.018;10.144;2024-02-14T01:37:41;102321.66;;;6.90;100.00
75886;BME280;64561;44.018;10.144;2024-02-14T01:40:12;102314.13;;;6.91;100.00
75886;BME280;64561;44.018;10.144;2024-02-14T01:42:59;102323.16;;;6.86;100.00
75886;BME280;64561;44.018;10.144;2024-02-14T01:45:28;102318.94;;;6.86;100.00
75886;BME280;64561;44.018;10.144;2024-02-14T01:48:12;102313.66;;;6.83;100.00
75886;BME280;64561;44.018;10.144;2024-02-14T01:50:46;102309.31;;;6.82;100.00
75886;BME280;64561;44.018;10.144;2024-02-14T01:53:14;102306.59;;;6.79;100.00
75886;BME280;64561;44.018;10.144;2024-02-14T01:55:41;102311.78;;;6.81;100.00
75886;BME280;64561;44.018;10.144;2024-02-14T01:58:08;102313.25;;;6.91;100.00
75886;BME280;64561;44.018;10.144;2024-02-14T02:00:37;102313.16;;;6.89;100.00
75886;BME280;64561;44.018;10.144;2024-02-14T02:03:10;102299.34;;;6.85;100.00
75886;BME280;64561;44.018;10.144;2024-02-14T02:05:37;102303.84;;;6.90;100.00
75886;BME280;64561;44.018;10.144;2024-02-14T02:08:07;102297.38;;;6.95;100.00
75886;BME280;64561;44.018;10.144;2024-02-14T02:10:36;102306.28;;;7.01;100.00
75886;BME280;64561;44.018;10.144;2024-02-14T02:13:30;102293.06;;;7.07;100.00
75886;BME280;64561;44.018;10.144;2024-02-14T02:16:17;102294.63;;;7.05;100.00
75886;BME280;64561;44.018;10.144;2024-02-14T02:19:06;102297.75;;;7.01;100.00
75886;BME280;64561;44.018;10.144;2024-02-14T02:22:07;102301.56;;;7.07;100.00
75886;BME280;64561;44.018;10.144;2024-02-14T02:24:49;102295.69;;;7.08;100.00
75886;BME280;64561;44.018;10.144;2024-02-14T02:27:18;102291.47;;;7.09;100.00
75886;BME280;64561;44.018;10.144;2024-02-14T02:30:08;102293.84;;;7.06;100.00
75886;BME280;64561;44.018;10.144;2024-02-14T02:32:39;102299.41;;;7.00;100.00
75886;BME280;64561;44.018;10.144;2024-02-14T02:35:06;102299.16;;;6.96;100.00
75886;BME280;64561;44.018;10.144;2024-02-14T02:37:53;102295.00;;;6.98;100.00
75886;BME280;64561;44.018;10.144;2024-02-14T02:40:40;102295.00;;;6.98;100.00
75886;BME280;64561;44.018;10.144;2024-02-14T02:43:27;102285.81;;;7.00;100.00
75886;BME280;64561;44.018;10.144;2024-02-14T02:46:15;102291.09;;;7.03;100.00
75886;BME280;64561;44.018;10.144;2024-02-14T02:49:02;102289.25;;;7.00;100.00
75886;BME280;64561;44.018;10.144;2024-02-14T02:51:33;102302.47;;;6.95;100.00
75886;BME280;64561;44.018;10.144;2024-02-14T02:54:20;102294.97;;;6.83;100.00
75886;BME280;64561;44.018;10.144;2024-02-14T02:57:10;102298.50;;;6.72;100.00
75886;BME280;64561;44.018;10.144;2024-02-14T02:59:38;102312.28;;;6.62;100.00
75886;BME280;64561;44.018;10.144;2024-02-14T03:02:10;102310.31;;;6.58;100.00
75886;BME280;64561;44.018;10.144;2024-02-14T03:04:58;102316.69;;;6.51;100.00
75886;BME280;64561;44.018;10.144;2024-02-14T03:07:46;102318.81;;;6.45;100.00
75886;BME280;64561;44.018;10.144;2024-02-14T03:10:35;102314.63;;;6.46;100.00
75886;BME280;64561;44.018;10.144;2024-02-14T03:13:22;102314.13;;;6.51;100.00
75886;BME280;64561;44.018;10.144;2024-02-14T03:16:09;102317.66;;;6.53;100.00
75886;BME280;64561;44.018;10.144;2024-02-14T03:18:38;102319.53;;;6.56;100.00
75886;BME280;64561;44.018;10.144;2024-02-14T03:21:05;102320.28;;;6.55;100.00
75886;BME280;64561;44.018;10.144;2024-02-14T03:23:33;102319.91;;;6.49;100.00
75886;BME280;64561;44.018;10.144;2024-02-14T03:26:00;102322.25;;;6.46;100.00
75886;BME280;64561;44.018;10.144;2024-02-14T03:28:28;102328.13;;;6.45;100.00
75886;BME280;64561;44.018;10.144;2024-02-14T03:30:55;102331.94;;;6.38;100.00
75886;BME280;64561;44.018;10.144;2024-02-14T03:33:24;102325.66;;;6.33;100.00
75886;BME280;64561;44.018;10.144;2024-02-14T03:35:52;102337.09;;;6.39;100.00
75886;BME280;64561;44.018;10.144;2024-02-14T03:38:28;102333.56;;;6.37;100.00
75886;BME280;64561;44.018;10.144;2024-02-14T03:40:56;102341.00;;;6.34;100.00
75886;BME280;64561;44.018;10.144;2024-02-14T03:43:23;102338.72;;;6.26;100.00
75886;BME280;64561;44.018;10.144;2024-02-14T03:45:51;102339.72;;;6.28;100.00
75886;BME280;64561;44.018;10.144;2024-02-14T03:48:18;102342.72;;;6.22;100.00
75886;BME280;64561;44.018;10.144;2024-02-14T03:50:46;102340.56;;;6.15;100.00
75886;BME280;64561;44.018;10.144;2024-02-14T03:53:13;102357.69;;;6.17;100.00
75886;BME280;64561;44.018;10.144;2024-02-14T03:55:41;102353.16;;;6.13;100.00
75886;BME280;64561;44.018;10.144;2024-02-14T03:58:08;102354.63;;;6.10;100.00
75886;BME280;64561;44.018;10.144;2024-02-14T04:00:36;102353.59;;;5.94;100.00
75886;BME280;64561;44.018;10.144;2024-02-14T04:03:03;102346.00;;;5.83;100.00
75886;BME280;64561;44.018;10.144;2024-02-14T04:05:31;102347.06;;;5.86;100.00
75886;BME280;64561;44.018;10.144;2024-02-14T04:07:58;102352.13;;;5.98;100.00
75886;BME280;64561;44.018;10.144;2024-02-14T04:10:25;102348.66;;;6.09;100.00
75886;BME280;64561;44.018;10.144;2024-02-14T04:12:53;102355.63;;;6.12;100.00
75886;BME280;64561;44.018;10.144;2024-02-14T04:15:20;102347.66;;;6.07;100.00
75886;BME280;64561;44.018;10.144;2024-02-14T04:17:57;102352.00;;;6.08;100.00
75886;BME280;64561;44.018;10.144;2024-02-14T04:20:30;102350.41;;;6.10;100.00
75886;BME280;64561;44.018;10.144;2024-02-14T04:22:58;102350.34;;;6.09;100.00
75886;BME280;64561;44.018;10.144;2024-02-14T04:25:25;102355.81;;;6.15;100.00
75886;BME280;64561;44.018;10.144;2024-02-14T04:27:53;102357.00;;;6.20;100.00
75886;BME280;64561;44.018;10.144;2024-02-14T04:30:20;102355.50;;;6.10;100.00
75886;BME280;64561;44.018;10.144;2024-02-14T04:33:07;102350.69;;;6.02;100.00
75886;BME280;64561;44.018;10.144;2024-02-14T04:35:40;102352.13;;;5.98;100.00
75886;BME280;64561;44.018;10.144;2024-02-14T04:38:07;102346.78;;;5.93;100.00
75886;BME280;64561;44.018;10.144;2024-02-14T04:40:35;102338.13;;;5.91;100.00
75886;BME280;64561;44.018;10.144;2024-02-14T04:43:05;102341.22;;;5.99;100.00
75886;BME280;64561;44.018;10.144;2024-02-14T04:45:32;102346.09;;;5.96;100.00
75886;BME280;64561;44.018;10.144;2024-02-14T04:48:07;102354.69;;;5.98;100.00
75886;BME280;64561;44.018;10.144;2024-02-14T04:50:35;102351.59;;;6.02;100.00
75886;BME280;64561;44.018;10.144;2024-02-14T04:53:04;102353.81;;;5.98;100.00
75886;BME280;64561;44.018;10.144;2024-02-14T04:55:31;102351.19;;;5.96;100.00
75886;BME280;64561;44.018;10.144;2024-02-14T04:58:00;102358.59;;;5.93;100.00
75886;BME280;64561;44.018;10.144;2024-02-14T05:00:27;102364.09;;;5.87;100.00
75886;BME280;64561;44.018;10.144;2024-02-14T05:02:54;102364.91;;;5.74;100.00
75886;BME280;64561;44.018;10.144;2024-02-14T05:05:22;102358.50;;;5.80;100.00
75886;BME280;64561;44.018;10.144;2024-02-14T05:07:59;102356.28;;;5.84;100.00
75886;BME280;64561;44.018;10.144;2024-02-14T05:10:26;102358.22;;;5.88;100.00
75886;BME280;64561;44.018;10.144;2024-02-14T05:12:54;102353.59;;;5.94;100.00
75886;BME280;64561;44.018;10.144;2024-02-14T05:15:21;102351.94;;;5.95;100.00
75886;BME280;64561;44.018;10.144;2024-02-14T05:17:49;102357.34;;;6.00;100.00
75886;BME280;64561;44.018;10.144;2024-02-14T05:20:17;102352.94;;;5.97;100.00
75886;BME280;64561;44.018;10.144;2024-02-14T05:22:44;102350.47;;;5.99;100.00
75886;BME280;64561;44.018;10.144;2024-02-14T05:25:11;102357.94;;;6.09;100.00
75886;BME280;64561;44.018;10.144;2024-02-14T05:27:55;102361.16;;;6.06;100.00
75886;BME280;64561;44.018;10.144;2024-02-14T05:30:22;102359.47;;;5.93;100.00
75886;BME280;64561;44.018;10.144;2024-02-14T05:33:01;102370.16;;;5.89;100.00
75886;BME280;64561;44.018;10.144;2024-02-14T05:35:30;102365.84;;;5.63;100.00
75886;BME280;64561;44.018;10.144;2024-02-14T05:37:57;102377.69;;;5.51;100.00
75886;BME280;64561;44.018;10.144;2024-02-14T05:40:24;102373.50;;;5.52;100.00
75886;BME280;64561;44.018;10.144;2024-02-14T05:42:51;102372.72;;;5.53;100.00
75886;BME280;64561;44.018;10.144;2024-02-14T05:45:19;102369.22;;;5.50;100.00
75886;BME280;64561;44.018;10.144;2024-02-14T05:47:46;102379.34;;;5.50;100.00
75886;BME280;64561;44.018;10.144;2024-02-14T05:50:14;102373.03;;;5.57;100.00
75886;BME280;64561;44.018;10.144;2024-02-14T05:52:41;102387.03;;;5.64;100.00
75886;BME280;64561;44.018;10.144;2024-02-14T05:55:09;102384.78;;;5.68;100.00
75886;BME280;64561;44.018;10.144;2024-02-14T05:57:49;102387.13;;;5.65;100.00
75886;BME280;64561;44.018;10.144;2024-02-14T06:00:18;102392.56;;;5.58;100.00
75886;BME280;64561;44.018;10.144;2024-02-14T06:02:47;102394.91;;;5.55;100.00
75886;BME280;64561;44.018;10.144;2024-02-14T06:05:15;102395.09;;;5.58;100.00
75886;BME280;64561;44.018;10.144;2024-02-14T06:07:43;102388.16;;;5.56;100.00
75886;BME280;64561;44.018;10.144;2024-02-14T06:10:14;102387.84;;;5.51;100.00
75886;BME280;64561;44.018;10.144;2024-02-14T06:12:41;102387.72;;;5.49;100.00
75886;BME280;64561;44.018;10.144;2024-02-14T06:15:10;102395.25;;;5.48;100.00
75886;BME280;64561;44.018;10.144;2024-02-14T06:17:39;102396.56;;;5.43;100.00
75886;BME280;64561;44.018;10.144;2024-02-14T06:20:07;102395.50;;;5.39;100.00
75886;BME280;64561;44.018;10.144;2024-02-14T06:22:36;102397.81;;;5.36;100.00
75886;BME280;64561;44.018;10.144;2024-02-14T06:25:15;102402.09;;;5.37;100.00
75886;BME280;64561;44.018;10.144;2024-02-14T06:28:00;102405.63;;;5.39;100.00
75886;BME280;64561;44.018;10.144;2024-02-14T06:30:29;102412.69;;;5.43;100.00
75886;BME280;64561;44.018;10.144;2024-02-14T06:32:59;102402.31;;;5.40;100.00
75886;BME280;64561;44.018;10.144;2024-02-14T06:35:29;102414.66;;;5.47;100.00
75886;BME280;64561;44.018;10.144;2024-02-14T06:37:58;102420.44;;;5.45;100.00
75886;BME280;64561;44.018;10.144;2024-02-14T06:40:32;102431.75;;;5.50;100.00
75886;BME280;64561;44.018;10.144;2024-02-14T06:42:59;102432.66;;;5.50;100.00
75886;BME280;64561;44.018;10.144;2024-02-14T06:45:29;102438.94;;;5.56;100.00
75886;BME280;64561;44.018;10.144;2024-02-14T06:48:16;102444.56;;;5.52;100.00
75886;BME280;64561;44.018;10.144;2024-02-14T06:50:44;102450.88;;;5.57;100.00
75886;BME280;64561;44.018;10.144;2024-02-14T06:53:11;102449.50;;;5.62;100.00
75886;BME280;64561;44.018;10.144;2024-02-14T06:55:39;102448.84;;;5.64;100.00
75886;BME280;64561;44.018;10.144;2024-02-14T06:58:06;102447.97;;;5.64;100.00
75886;BME280;64561;44.018;10.144;2024-02-14T07:00:33;102451.50;;;5.66;100.00
75886;BME280;64561;44.018;10.144;2024-02-14T07:03:00;102454.06;;;5.66;100.00
75886;BME280;64561;44.018;10.144;2024-02-14T07:05:28;102449.72;;;5.65;100.00
75886;BME280;64561;44.018;10.144;2024-02-14T07:07:56;102458.22;;;5.65;100.00
75886;BME280;64561;44.018;10.144;2024-02-14T07:10:23;102453.47;;;5.70;100.00
75886;BME280;64561;44.018;10.144;2024-02-14T07:12:51;102462.75;;;5.81;100.00
75886;BME280;64561;44.018;10.144;2024-02-14T07:15:18;102454.53;;;5.85;100.00
75886;BME280;64561;44.018;10.144;2024-02-14T07:17:46;102455.75;;;5.90;100.00
75886;BME280;64561;44.018;10.144;2024-02-14T07:20:14;102452.00;;;5.97;100.00
75886;BME280;64561;44.018;10.144;2024-02-14T07:22:42;102454.84;;;6.02;100.00
75886;BME280;64561;44.018;10.144;2024-02-14T07:25:13;102459.81;;;6.12;100.00
75886;BME280;64561;44.018;10.144;2024-02-14T07:27:40;102462.09;;;6.21;100.00
75886;BME280;64561;44.018;10.144;2024-02-14T07:30:08;102463.00;;;6.34;100.00
75886;BME280;64561;44.018;10.144;2024-02-14T07:32:36;102469.03;;;6.48;100.00
75886;BME280;64561;44.018;10.144;2024-02-14T07:35:04;102474.72;;;6.57;100.00
75886;BME280;64561;44.018;10.144;2024-02-14T07:37:34;102468.28;;;6.62;100.00
75886;BME280;64561;44.018;10.144;2024-02-14T07:40:03;102466.72;;;6.64;100.00
75886;BME280;64561;44.018;10.144;2024-02-14T07:42:34;102465.09;;;6.65;100.00
75886;BME280;64561;44.018;10.144;2024-02-14T07:45:01;102476.00;;;6.64;100.00
75886;BME280;64561;44.018;10.144;2024-02-14T07:47:33;102480.03;;;6.74;100.00
75886;BME280;64561;44.018;10.144;2024-02-14T07:50:01;102481.34;;;6.80;100.00
75886;BME280;64561;44.018;10.144;2024-02-14T07:52:31;102481.56;;;6.83;100.00
75886;BME280;64561;44.018;10.144;2024-02-14T07:55:02;102470.69;;;6.86;100.00
75886;BME280;64561;44.018;10.144;2024-02-14T07:57:31;102475.28;;;6.92;100.00
75886;BME280;64561;44.018;10.144;2024-02-14T07:59:58;102488.03;;;7.05;100.00
75886;BME280;64561;44.018;10.144;2024-02-14T08:02:26;102492.06;;;7.15;100.00
75886;BME280;64561;44.018;10.144;2024-02-14T08:04:55;102493.25;;;7.20;100.00
75886;BME280;64561;44.018;10.144;2024-02-14T08:07:23;102497.16;;;7.28;100.00
75886;BME280;64561;44.018;10.144;2024-02-14T08:09:50;102496.09;;;7.38;100.00
75886;BME280;64561;44.018;10.144;2024-02-14T08:12:17;102503.25;;;7.43;100.00
75886;BME280;64561;44.018;10.144;2024-02-14T08:14:45;102509.59;;;7.50;100.00
75886;BME280;64561;44.018;10.144;2024-02-14T08:17:14;102504.09;;;7.57;100.00
75886;BME280;64561;44.018;10.144;2024-02-14T08:19:41;102498.81;;;7.67;100.00
75886;BME280;64561;44.018;10.144;2024-02-14T08:22:09;102497.22;;;7.83;100.00
75886;BME280;64561;44.018;10.144;2024-02-14T08:24:36;102496.91;;;7.91;100.00
75886;BME280;64561;44.018;10.144;2024-02-14T08:27:06;102496.06;;;8.06;100.00
75886;BME280;64561;44.018;10.144;2024-02-14T08:29:34;102502.41;;;8.25;100.00
75886;BME280;64561;44.018;10.144;2024-02-14T08:32:03;102495.69;;;8.41;100.00
75886;BME280;64561;44.018;10.144;2024-02-14T08:34:30;102486.16;;;8.52;100.00
75886;BME280;64561;44.018;10.144;2024-02-14T08:36:58;102494.41;;;8.62;100.00
75886;BME280;64561;44.018;10.144;2024-02-14T08:39:28;102507.63;;;8.70;100.00
75886;BME280;64561;44.018;10.144;2024-02-14T08:41:55;102500.22;;;8.75;100.00
75886;BME280;64561;44.018;10.144;2024-02-14T08:44:23;102502.97;;;8.78;100.00
75886;BME280;64561;44.018;10.144;2024-02-14T08:46:50;102509.41;;;8.86;100.00
75886;BME280;64561;44.018;10.144;2024-02-14T08:49:19;102512.31;;;8.92;100.00
75886;BME280;64561;44.018;10.144;2024-02-14T08:51:47;102498.84;;;8.95;100.00
75886;BME280;64561;44.018;10.144;2024-02-14T08:54:15;102491.88;;;8.92;100.00
75886;BME280;64561;44.018;10.144;2024-02-14T08:56:43;102496.13;;;8.91;100.00
75886;BME280;64561;44.018;10.144;2024-02-14T08:59:11;102492.69;;;8.91;100.00
75886;BME280;64561;44.018;10.144;2024-02-14T09:01:42;102490.50;;;8.97;100.00
75886;BME280;64561;44.018;10.144;2024-02-14T09:04:11;102488.34;;;9.05;100.00
75886;BME280;64561;44.018;10.144;2024-02-14T09:06:38;102483.53;;;9.09;100.00
75886;BME280;64561;44.018;10.144;2024-02-14T09:09:07;102481.47;;;9.33;100.00
75886;BME280;64561;44.018;10.144;2024-02-14T09:11:37;102491.19;;;9.55;100.00
75886;BME280;64561;44.018;10.144;2024-02-14T09:14:04;102494.56;;;9.71;100.00
75886;BME280;64561;44.018;10.144;2024-02-14T09:16:33;102496.84;;;9.81;100.00
75886;BME280;64561;44.018;10.144;2024-02-14T09:19:01;102488.72;;;9.88;100.00
75886;BME280;64561;44.018;10.144;2024-02-14T09:21:29;102493.66;;;10.01;100.00
75886;BME280;64561;44.018;10.144;2024-02-14T09:23:56;102498.16;;;10.05;100.00
75886;BME280;64561;44.018;10.144;2024-02-14T09:26:29;102495.22;;;10.14;100.00
75886;BME280;64561;44.018;10.144;2024-02-14T09:28:57;102498.50;;;10.28;100.00
75886;BME280;64561;44.018;10.144;2024-02-14T09:31:27;102500.13;;;10.42;100.00
75886;BME280;64561;44.018;10.144;2024-02-14T09:33:54;102502.03;;;10.46;100.00
75886;BME280;64561;44.018;10.144;2024-02-14T09:36:25;102506.66;;;10.53;100.00
75886;BME280;64561;44.018;10.144;2024-02-14T09:38:57;102504.41;;;10.60;100.00
75886;BME280;64561;44.018;10.144;2024-02-14T09:41:31;102505.50;;;10.65;100.00
75886;BME280;64561;44.018;10.144;2024-02-14T09:44:01;102512.72;;;10.72;100.00
75886;BME280;64561;44.018;10.144;2024-02-14T09:46:30;102499.41;;;10.79;100.00
75886;BME280;64561;44.018;10.144;2024-02-14T09:48:59;102497.97;;;10.84;100.00
75886;BME280;64561;44.018;10.144;2024-02-14T09:51:31;102504.41;;;10.94;100.00
75886;BME280;64561;44.018;10.144;2024-02-14T09:54:02;102505.59;;;11.01;100.00
75886;BME280;64561;44.018;10.144;2024-02-14T09:56:33;102504.16;;;11.06;100.00
75886;BME280;64561;44.018;10.144;2024-02-14T09:59:02;102507.09;;;11.13;97.88
75886;BME280;64561;44.018;10.144;2024-02-14T10:01:29;102511.03;;;11.07;99.18
75886;BME280;64561;44.018;10.144;2024-02-14T10:03:57;102512.84;;;11.09;97.80
75886;BME280;64561;44.018;10.144;2024-02-14T10:06:24;102506.19;;;11.13;98.57
75886;BME280;64561;44.018;10.144;2024-02-14T10:08:55;102508.56;;;11.26;99.14
75886;BME280;64561;44.018;10.144;2024-02-14T10:11:31;102505.34;;;11.30;98.89
75886;BME280;64561;44.018;10.144;2024-02-14T10:14:00;102517.28;;;11.48;97.68
75886;BME280;64561;44.018;10.144;2024-02-14T10:16:32;102515.53;;;11.47;96.90
75886;BME280;64561;44.018;10.144;2024-02-14T10:18:59;102518.53;;;11.56;99.32
75886;BME280;64561;44.018;10.144;2024-02-14T10:21:27;102508.56;;;11.62;97.09
75886;BME280;64561;44.018;10.144;2024-02-14T10:23:59;102511.69;;;11.74;95.32
75886;BME280;64561;44.018;10.144;2024-02-14T10:26:30;102505.97;;;11.80;93.59
75886;BME280;64561;44.018;10.144;2024-02-14T10:28:58;102516.75;;;11.90;92.96
75886;BME280;64561;44.018;10.144;2024-02-14T10:31:28;102512.47;;;11.91;93.08
75886;BME280;64561;44.018;10.144;2024-02-14T10:33:56;102516.88;;;11.94;93.43
75886;BME280;64561;44.018;10.144;2024-02-14T10:36:27;102521.28;;;11.96;92.54
75886;BME280;64561;44.018;10.144;2024-02-14T10:39:01;102486.47;;;11.83;92.67
75886;BME280;64561;44.018;10.144;2024-02-14T10:41:31;102510.91;;;12.12;92.17
75886;BME280;64561;44.018;10.144;2024-02-14T10:44:03;102500.97;;;12.20;92.42
75886;BME280;64561;44.018;10.144;2024-02-14T10:46:32;102501.81;;;12.19;91.49
75886;BME280;64561;44.018;10.144;2024-02-14T10:49:04;102508.00;;;12.24;93.82
75886;BME280;64561;44.018;10.144;2024-02-14T10:51:34;102507.66;;;12.36;94.04
75886;BME280;64561;44.018;10.144;2024-02-14T10:54:10;102512.66;;;12.52;92.55
75886;BME280;64561;44.018;10.144;2024-02-14T10:56:41;102510.16;;;12.54;92.48
75886;BME280;64561;44.018;10.144;2024-02-14T10:59:11;102495.56;;;12.53;92.12
75886;BME280;64561;44.018;10.144;2024-02-14T11:01:41;102506.47;;;12.68;90.98
75886;BME280;64561;44.018;10.144;2024-02-14T11:04:09;102505.13;;;12.76;89.01
75886;BME280;64561;44.018;10.144;2024-02-14T11:06:45;102505.91;;;12.75;84.72
75886;BME280;64561;44.018;10.144;2024-02-14T11:09:14;102506.75;;;12.74;87.94
75886;BME280;64561;44.018;10.144;2024-02-14T11:11:47;102503.81;;;12.86;87.68
75886;BME280;64561;44.018;10.144;2024-02-14T11:14:20;102507.25;;;12.87;87.40
75886;BME280;64561;44.018;10.144;2024-02-14T11:16:51;102512.50;;;12.90;87.22
75886;BME280;64561;44.018;10.144;2024-02-14T11:19:19;102503.44;;;12.98;86.89
75886;BME280;64561;44.018;10.144;2024-02-14T11:21:47;102500.25;;;12.82;86.12
75886;BME280;64561;44.018;10.144;2024-02-14T11:24:16;102500.75;;;12.95;89.30
75886;BME280;64561;44.018;10.144;2024-02-14T11:26:51;102493.53;;;13.07;87.14
75886;BME280;64561;44.018;10.144;2024-02-14T11:29:19;102495.41;;;13.11;86.71
75886;BME280;64561;44.018;10.144;2024-02-14T11:32:01;102492.47;;;13.02;86.05
75886;BME280;64561;44.018;10.144;2024-02-14T11:34:32;102489.09;;;13.03;88.14
75886;BME280;64561;44.018;10.144;2024-02-14T11:37:04;102494.50;;;13.09;87.18
75886;BME280;64561;44.018;10.144;2024-02-14T11:39:35;102487.69;;;13.11;88.19
75886;BME280;64561;44.018;10.144;2024-02-14T11:42:03;102485.75;;;13.05;89.16
75886;BME280;64561;44.018;10.144;2024-02-14T11:44:31;102488.19;;;13.02;89.15
75886;BME280;64561;44.018;10.144;2024-02-14T11:47:00;102479.56;;;13.00;87.99
75886;BME280;64561;44.018;10.144;2024-02-14T11:49:27;102470.31;;;13.05;89.98
75886;BME280;64561;44.018;10.144;2024-02-14T11:51:55;102470.91;;;12.98;91.04
75886;BME280;64561;44.018;10.144;2024-02-14T11:54:22;102471.28;;;13.08;91.60
75886;BME280;64561;44.018;10.144;2024-02-14T11:56:50;102470.91;;;13.19;88.85
75886;BME280;64561;44.018;10.144;2024-02-14T11:59:17;102464.00;;;13.18;88.16
75886;BME280;64561;44.018;10.144;2024-02-14T12:01:47;102463.47;;;13.25;89.98
75886;BME280;64561;44.018;10.144;2024-02-14T12:04:16;102461.13;;;13.32;90.78
75886;BME280;64561;44.018;10.144;2024-02-14T12:06:44;102453.84;;;13.42;90.38
75886;BME280;64561;44.018;10.144;2024-02-14T12:09:11;102450.00;;;13.33;88.85
75886;BME280;64561;44.018;10.144;2024-02-14T12:11:51;102450.41;;;13.21;90.90
75886;BME280;64561;44.018;10.144;2024-02-14T12:14:18;102449.22;;;13.13;92.70
75886;BME280;64561;44.018;10.144;2024-02-14T12:16:56;102456.06;;;13.33;91.23
75886;BME280;64561;44.018;10.144;2024-02-14T12:19:26;102457.31;;;13.44;90.64
75886;BME280;64561;44.018;10.144;2024-02-14T12:21:59;102441.91;;;13.44;90.10
75886;BME280;64561;44.018;10.144;2024-02-14T12:24:28;102447.59;;;13.36;91.32
75886;BME280;64561;44.018;10.144;2024-02-14T12:27:04;102447.72;;;13.39;90.37
75886;BME280;64561;44.018;10.144;2024-02-14T12:29:35;102453.84;;;13.21;91.01
75886;BME280;64561;44.018;10.144;2024-02-14T12:32:06;102455.97;;;13.11;91.96
75886;BME280;64561;44.018;10.144;2024-02-14T12:34:33;102458.38;;;13.06;93.80
75886;BME280;64561;44.018;10.144;2024-02-14T12:37:01;102464.44;;;13.08;93.63
75886;BME280;64561;44.018;10.144;2024-02-14T12:39:30;102454.00;;;13.03;92.38
75886;BME280;64561;44.018;10.144;2024-02-14T12:41:57;102456.59;;;13.05;91.30
75886;BME280;64561;44.018;10.144;2024-02-14T12:44:25;102456.19;;;13.15;93.54
75886;BME280;64561;44.018;10.144;2024-02-14T12:46:52;102451.19;;;13.20;92.44
75886;BME280;64561;44.018;10.144;2024-02-14T12:49:19;102454.91;;;13.26;92.02
75886;BME280;64561;44.018;10.144;2024-02-14T12:51:47;102448.91;;;13.26;90.44
75886;BME280;64561;44.018;10.144;2024-02-14T12:54:14;102439.81;;;13.34;91.15
75886;BME280;64561;44.018;10.144;2024-02-14T12:56:42;102443.47;;;13.41;90.11